Time;durP1;ratioP1;P1;durP2;ratioP2;P2;SDS_P1;SDS_P2;PMS_P1;PMS_P2;Temp;Humidity;BMP_temperature;BMP_pressure;BME280_temperature;BME280_humidity;BME280_pressure;Samples;Min_cycle;Max_cycle;Signal;HPM_P1;HPM_P2
2023/09/20 00:01:05;;;;;;;3.35;1.50;;;16.60;99.90;;;;;;5016829;28;20064;-69
2023/09/20 00:03:31;;;;;;;;;;;16.60;99.90;;;;;;4993189;28;20436;-69
2023/09/20 00:05:59;;;;;;;5.30;1.95;;;16.60;99.90;;;;;;5026373;28;19929;-69
2023/09/20 00:08:25;;;;;;;7.20;2.55;;;16.60;99.90;;;;;;5014379;28;20061;-69
2023/09/20 00:10:51;;;;;;;5.97;2.15;;;16.60;99.90;;;;;;4995395;28;20049;-69
2023/09/20 00:13:16;;;;;;;4.45;1.67;;;16.60;99.90;;;;;;5012016;28;20559;-69
2023/09/20 00:15:45;;;;;;;7.32;1.58;;;16.60;99.90;;;;;;5017986;28;20061;-69
2023/09/20 00:18:11;;;;;;;4.40;1.75;;;16.60;99.90;;;;;;5011138;28;20469;-69
2023/09/20 00:20:39;;;;;;;4.97;1.63;;;16.60;99.90;;;;;;5004558;28;20080;-69
2023/09/20 00:23:05;;;;;;;3.55;1.58;;;16.60;99.90;;;;;;5022141;28;20440;-69
2023/09/20 00:25:31;;;;;;;2.30;1.05;;;16.60;99.90;;;;;;5011774;28;20183;-69
2023/09/20 00:27:56;;;;;;;4.07;1.50;;;16.60;99.90;;;;;;5006487;28;20060;-69
2023/09/20 00:30:23;;;;;;;7.35;1.58;;;16.50;99.90;;;;;;5020305;28;20058;-70
2023/09/20 00:32:55;;;;;;;2.45;1.25;;;16.60;99.90;;;;;;5025607;28;20053;-69
2023/09/20 00:35:21;;;;;;;3.73;1.27;;;16.50;99.90;;;;;;5009163;28;20041;-68
2023/09/20 00:37:48;;;;;;;2.05;1.38;;;16.60;99.90;;;;;;5012379;28;20049;-69
2023/09/20 00:40:21;;;;;;;5.30;1.60;;;16.50;99.90;;;;;;5007463;28;20037;-69
2023/09/20 00:42:51;;;;;;;3.08;1.58;;;16.60;99.90;;;;;;5012252;28;20107;-69
2023/09/20 00:45:21;;;;;;;8.20;1.50;;;16.50;99.90;;;;;;5010775;28;20064;-68
2023/09/20 00:47:56;;;;;;;6.82;1.52;;;16.60;99.90;;;;;;5011246;28;20524;-69
2023/09/20 00:50:22;;;;;;;3.03;1.65;;;16.50;99.90;;;;;;5009374;28;20046;-69
2023/09/20 00:52:54;;;;;;;4.50;1.65;;;16.50;99.90;;;;;;5010341;28;20046;-69
2023/09/20 00:55:27;;;;;;;5.85;2.17;;;16.60;99.90;;;;;;5010400;28;20107;-69
2023/09/20 00:57:59;;;;;;;4.07;1.73;;;16.60;99.90;;;;;;5003906;28;20144;-69
2023/09/20 01:00:27;;;;;;;5.03;1.80;;;16.60;99.90;;;;;;5028655;28;20152;-69
2023/09/20 01:02:57;;;;;;;6.75;2.15;;;16.50;99.90;;;;;;5029694;28;20046;-69
2023/09/20 01:05:26;;;;;;;3.53;1.70;;;16.60;99.90;;;;;;5010590;28;20061;-69
2023/09/20 01:07:59;;;;;;;6.47;1.90;;;16.60;99.90;;;;;;5028968;28;20116;-69
2023/09/20 01:10:26;;;;;;;8.57;1.92;;;16.60;99.90;;;;;;5010605;28;20061;-70
2023/09/20 01:12:57;;;;;;;8.57;2.25;;;16.60;99.90;;;;;;5028090;28;20084;-69
2023/09/20 01:15:24;;;;;;;6.53;2.28;;;16.60;99.90;;;;;;5026892;28;20582;-69
2023/09/20 01:17:56;;;;;;;6.20;2.85;;;16.60;99.90;;;;;;5026395;28;20292;-69
2023/09/20 01:20:24;;;;;;;9.70;2.15;;;16.60;99.90;;;;;;5029338;28;20112;-69
2023/09/20 01:22:51;;;;;;;12.52;2.50;;;16.60;99.90;;;;;;5009245;28;20523;-69
2023/09/20 01:25:43;;;;;;;7.15;2.10;;;16.60;99.90;;;;;;5011819;28;20561;-69
2023/09/20 01:28:10;;;;;;;4.32;1.67;;;16.60;99.90;;;;;;5010459;28;20080;-69
2023/09/20 01:30:39;;;;;;;6.00;1.92;;;16.60;99.90;;;;;;5025741;28;20045;-70
2023/09/20 01:33:07;;;;;;;10.18;3.05;;;16.60;99.90;;;;;;5007947;28;20046;-69
2023/09/20 01:35:34;;;;;;;6.03;2.03;;;16.60;99.90;;;;;;5010051;28;20111;-69
2023/09/20 01:38:06;;;;;;;7.63;2.03;;;16.60;99.90;;;;;;4993729;28;20050;-69
2023/09/20 01:40:35;;;;;;;7.90;2.25;;;16.60;99.90;;;;;;5028323;28;20056;-69
2023/09/20 01:43:06;;;;;;;4.35;1.75;;;16.60;99.90;;;;;;5028148;28;20455;-69
2023/09/20 01:45:34;;;;;;;7.65;1.92;;;16.70;99.90;;;;;;5026856;28;20791;-70
2023/09/20 01:48:00;;;;;;;8.52;2.00;;;16.70;99.90;;;;;;4992884;28;20078;-69
2023/09/20 01:50:27;;;;;;;7.78;1.75;;;16.60;99.90;;;;;;5029131;28;20165;-69
2023/09/20 01:52:57;;;;;;;6.85;2.03;;;16.70;99.90;;;;;;5009236;28;20049;-69
2023/09/20 01:55:25;;;;;;;4.32;1.77;;;16.70;99.90;;;;;;5027645;28;20049;-69
2023/09/20 01:57:53;;;;;;;5.53;1.98;;;16.70;99.90;;;;;;4991085;28;20049;-70
2023/09/20 02:00:32;;;;;;;7.75;2.08;;;16.70;99.90;;;;;;5007694;28;20423;-69
2023/09/20 02:03:07;;;;;;;4.53;1.88;;;16.70;99.90;;;;;;4992176;28;20093;-69
2023/09/20 02:05:36;;;;;;;3.35;1.58;;;16.60;99.90;;;;;;5006825;28;20504;-69
2023/09/20 02:08:03;;;;;;;5.82;1.80;;;16.60;99.90;;;;;;5006272;28;20096;-69
2023/09/20 02:10:28;;;;;;;3.28;1.55;;;16.70;99.90;;;;;;5001816;28;20054;-69
2023/09/20 02:12:56;;;;;;;5.35;1.90;;;16.70;99.90;;;;;;5007270;28;20050;-70
2023/09/20 02:15:29;;;;;;;6.25;1.90;;;16.70;99.90;;;;;;4986431;28;20046;-69
2023/09/20 02:17:55;;;;;;;4.82;1.73;;;16.70;99.90;;;;;;5006104;28;20049;-70
2023/09/20 02:20:23;;;;;;;4.68;1.77;;;16.70;99.90;;;;;;5006013;28;20104;-69
2023/09/20 02:22:55;;;;;;;7.32;1.80;;;16.70;99.90;;;;;;5005576;28;20094;-69
2023/09/20 02:25:22;;;;;;;4.68;1.90;;;16.70;99.90;;;;;;5007466;28;20491;-69
2023/09/20 02:27:49;;;;;;;6.80;1.80;;;16.70;99.90;;;;;;5003290;28;20498;-69
2023/09/20 02:30:17;;;;;;;13.05;2.17;;;16.70;99.90;;;;;;4998912;28;20408;-69
2023/09/20 02:32:43;;;;;;;13.52;1.85;;;16.70;99.90;;;;;;4985052;28;20665;-69
2023/09/20 02:35:10;;;;;;;4.35;1.90;;;16.70;99.90;;;;;;5008727;28;20057;-69
2023/09/20 02:37:36;;;;;;;8.32;1.85;;;16.80;99.90;;;;;;4989985;28;20065;-69
2023/09/20 02:40:13;;;;;;;4.90;1.95;;;16.80;99.90;;;;;;4990061;28;20100;-69
2023/09/20 02:42:47;;;;;;;6.30;1.98;;;16.80;99.90;;;;;;4990700;28;20061;-69
2023/09/20 02:45:13;;;;;;;5.72;1.90;;;16.80;99.90;;;;;;5005082;28;20104;-69
2023/09/20 02:47:40;;;;;;;7.32;1.35;;;16.80;99.90;;;;;;5007220;28;20046;-70
2023/09/20 02:50:12;;;;;;;6.28;1.80;;;16.80;99.90;;;;;;4990584;28;20131;-68
2023/09/20 02:52:41;;;;;;;5.22;1.65;;;16.80;99.90;;;;;;4997934;28;20522;-69
2023/09/20 02:55:08;;;;;;;3.67;1.80;;;16.80;99.90;;;;;;4973011;28;20045;-69
2023/09/20 02:57:37;;;;;;;7.47;1.88;;;16.80;99.90;;;;;;4995360;28;20388;-69
2023/09/20 03:00:14;;;;;;;5.60;1.85;;;16.90;99.90;;;;;;5004599;28;20057;-69
2023/09/20 03:02:45;;;;;;;4.18;1.48;;;16.90;99.90;;;;;;4984912;28;20073;-69
2023/09/20 03:05:17;;;;;;;9.25;1.90;;;16.90;99.90;;;;;;4997340;28;20058;-69
2023/09/20 03:07:49;;;;;;;4.47;1.48;;;16.90;99.90;;;;;;5006806;28;20050;-69
2023/09/20 03:10:19;;;;;;;6.30;1.83;;;16.90;99.90;;;;;;5002264;28;20045;-69
2023/09/20 03:12:46;;;;;;;;;;;16.90;99.90;;;;;;5008587;28;20049;-70
2023/09/20 03:15:17;;;;;;;6.22;1.52;;;16.90;99.90;;;;;;4988703;28;19968;-69
2023/09/20 03:17:47;;;;;;;6.05;1.42;;;16.90;99.90;;;;;;5006552;28;20057;-69
2023/09/20 03:20:18;;;;;;;6.15;1.88;;;16.90;99.90;;;;;;5006143;28;20516;-69
2023/09/20 03:22:44;;;;;;;7.50;1.67;;;17.00;99.90;;;;;;5006871;28;20062;-69
2023/09/20 03:25:09;;;;;;;7.05;1.55;;;17.00;99.90;;;;;;5003164;28;20058;-68
2023/09/20 03:27:40;;;;;;;5.13;1.48;;;16.90;99.90;;;;;;4997213;28;20057;-69
2023/09/20 03:30:13;;;;;;;3.70;1.52;;;16.90;99.90;;;;;;4999088;28;20054;-69
2023/09/20 03:32:44;;;;;;;4.93;1.52;;;16.90;99.90;;;;;;4965131;28;20468;-68
2023/09/20 03:35:12;;;;;;;5.47;1.30;;;16.90;99.90;;;;;;4985872;28;20065;-69
2023/09/20 03:37:40;;;;;;;3.97;1.67;;;16.90;99.90;;;;;;4996719;28;20128;-69
2023/09/20 03:40:17;;;;;;;8.23;1.75;;;16.90;99.90;;;;;;5006673;28;20124;-69
2023/09/20 03:42:48;;;;;;;7.65;2.55;;;16.90;99.90;;;;;;5003862;28;20085;-69
2023/09/20 03:45:15;;;;;;;5.70;1.58;;;16.90;99.90;;;;;;5001032;28;20489;-70
2023/09/20 03:47:41;;;;;;;6.35;1.77;;;16.90;99.90;;;;;;5008917;28;20057;-69
2023/09/20 03:50:09;;;;;;;4.97;1.30;;;17.00;99.90;;;;;;5005123;28;20054;-69
2023/09/20 03:52:38;;;;;;;5.88;1.50;;;17.00;99.90;;;;;;5025298;28;20088;-69
2023/09/20 03:55:08;;;;;;;;;;;17.00;99.90;;;;;;5008340;28;20046;-69
2023/09/20 03:57:34;;;;;;;3.30;1.50;;;17.00;99.90;;;;;;5009967;28;19926;-69
2023/09/20 04:00:00;;;;;;;5.30;1.35;;;17.00;99.90;;;;;;5022126;28;20054;-69
2023/09/20 04:02:28;;;;;;;7.93;1.80;;;17.00;99.90;;;;;;4997888;28;20563;-69
2023/09/20 04:04:55;;;;;;;3.70;1.75;;;17.00;99.90;;;;;;5001896;28;20097;-69
2023/09/20 04:07:26;;;;;;;3.67;1.23;;;17.00;99.90;;;;;;5012536;28;20542;-69
2023/09/20 04:09:52;;;;;;;8.55;1.70;;;17.00;99.90;;;;;;5009582;28;20675;-71
2023/09/20 04:12:19;;;;;;;3.85;1.58;;;17.00;99.90;;;;;;5004812;28;20145;-69
2023/09/20 04:14:45;;;;;;;3.58;1.40;;;17.10;99.90;;;;;;5019391;28;20436;-69
2023/09/20 04:17:11;;;;;;;10.73;2.25;;;17.00;99.90;;;;;;5010002;28;20160;-69
2023/09/20 04:19:40;;;;;;;6.68;1.90;;;17.10;99.90;;;;;;4992563;28;20096;-68
2023/09/20 04:22:06;;;;;;;8.63;1.98;;;17.00;99.90;;;;;;4984963;28;20133;-69
2023/09/20 04:24:35;;;;;;;6.43;1.33;;;17.00;99.90;;;;;;4997091;28;20463;-69
2023/09/20 04:27:04;;;;;;;8.95;2.40;;;17.00;99.90;;;;;;5003048;28;20081;-69
2023/09/20 04:29:30;;;;;;;6.03;1.70;;;17.00;99.90;;;;;;4987542;28;20427;-69
2023/09/20 04:31:57;;;;;;;3.50;1.67;;;17.00;99.90;;;;;;4983119;28;20100;-69
2023/09/20 04:34:23;;;;;;;3.53;1.45;;;17.00;99.90;;;;;;5002049;28;20038;-69
2023/09/20 04:36:51;;;;;;;6.88;1.80;;;17.00;99.90;;;;;;5009942;28;20048;-70
2023/09/20 04:39:17;;;;;;;2.58;1.60;;;17.00;99.90;;;;;;4969760;28;20507;-69
2023/09/20 04:41:43;;;;;;;5.13;1.50;;;17.00;99.90;;;;;;5008746;28;20045;-69
2023/09/20 04:44:08;;;;;;;3.40;1.60;;;17.00;99.90;;;;;;5008194;28;20038;-69
2023/09/20 04:46:39;;;;;;;7.80;2.03;;;17.00;99.90;;;;;;4988549;28;20050;-69
2023/09/20 04:49:06;;;;;;;9.02;1.98;;;17.00;99.90;;;;;;4998367;28;20058;-69
2023/09/20 04:51:32;;;;;;;4.90;2.28;;;17.00;99.90;;;;;;5007520;28;20512;-69
2023/09/20 04:53:59;;;;;;;11.85;2.65;;;17.00;99.90;;;;;;4996868;28;20099;-69
2023/09/20 04:56:28;;;;;;;9.68;1.80;;;17.00;99.90;;;;;;5005936;28;20210;-69
2023/09/20 04:58:56;;;;;;;;;;;17.00;99.90;;;;;;5009587;28;20496;-69
2023/09/20 05:01:23;;;;;;;4.18;1.85;;;17.00;99.90;;;;;;5014467;28;19971;-69
2023/09/20 05:03:50;;;;;;;3.88;1.70;;;16.90;99.90;;;;;;4991044;28;20113;-69
2023/09/20 05:06:22;;;;;;;10.32;1.60;;;16.90;99.90;;;;;;4998941;28;20248;-70
2023/09/20 05:08:50;;;;;;;5.50;1.83;;;16.90;99.90;;;;;;4985916;28;20046;-69
2023/09/20 05:11:18;;;;;;;9.48;2.30;;;16.90;99.90;;;;;;4962510;28;20204;-69
2023/09/20 05:13:45;;;;;;;5.88;1.63;;;16.90;99.90;;;;;;5008606;28;20050;-69
2023/09/20 05:16:11;;;;;;;6.65;1.98;;;16.90;99.90;;;;;;4989470;28;20480;-69
2023/09/20 05:18:37;;;;;;;8.95;2.38;;;16.90;99.90;;;;;;4986643;28;20048;-69
2023/09/20 05:21:02;;;;;;;4.53;1.60;;;16.80;99.90;;;;;;5007031;28;20050;-68
2023/09/20 05:23:28;;;;;;;2.80;1.73;;;16.80;99.90;;;;;;4980593;28;20053;-69
2023/09/20 05:25:54;;;;;;;7.93;2.47;;;16.80;99.90;;;;;;4990258;28;20148;-69
2023/09/20 05:28:20;;;;;;;12.05;1.83;;;16.70;99.90;;;;;;4993052;28;20057;-69
2023/09/20 05:30:46;;;;;;;7.60;2.25;;;16.70;99.90;;;;;;5009161;28;20132;-69
2023/09/20 05:33:12;;;;;;;9.13;2.20;;;16.60;99.90;;;;;;5008519;28;20126;-68
2023/09/20 05:35:43;;;;;;;6.13;1.42;;;16.60;99.90;;;;;;5009757;28;20046;-68
2023/09/20 05:38:13;;;;;;;7.32;2.00;;;16.60;99.90;;;;;;4996110;28;20046;-70
2023/09/20 05:40:38;;;;;;;7.15;2.22;;;16.50;99.90;;;;;;5024884;28;20062;-68
2023/09/20 05:43:06;;;;;;;4.88;1.85;;;16.50;99.90;;;;;;4989241;28;20055;-69
2023/09/20 05:45:33;;;;;;;6.18;2.25;;;16.50;99.90;;;;;;5009396;28;20049;-69
2023/09/20 05:48:01;;;;;;;4.45;1.90;;;16.50;99.90;;;;;;4984089;28;20144;-68
2023/09/20 05:50:33;;;;;;;9.65;1.85;;;16.50;99.90;;;;;;4983660;28;20042;-69
2023/09/20 05:53:06;;;;;;;9.85;1.98;;;16.50;99.90;;;;;;4998857;28;20057;-69
2023/09/20 05:55:35;;;;;;;6.00;1.60;;;16.50;99.90;;;;;;4980114;28;20049;-68
2023/09/20 05:58:02;;;;;;;3.95;1.58;;;16.50;99.90;;;;;;4981678;28;20168;-68
2023/09/20 06:00:29;;;;;;;7.25;1.90;;;16.50;99.90;;;;;;5014249;28;20049;-68
2023/09/20 06:02:59;;;;;;;5.85;1.90;;;16.50;99.90;;;;;;5010636;28;20107;-68
2023/09/20 06:05:25;;;;;;;8.48;1.48;;;16.50;99.90;;;;;;5006730;28;20053;-68
2023/09/20 06:07:53;;;;;;;3.72;1.40;;;16.50;99.90;;;;;;5011537;28;20112;-68
2023/09/20 06:10:20;;;;;;;3.88;1.48;;;16.50;99.90;;;;;;5007577;28;20041;-68
2023/09/20 06:12:46;;;;;;;6.03;1.75;;;16.50;99.90;;;;;;5025911;28;20053;-69
2023/09/20 06:15:15;;;;;;;4.85;1.40;;;16.50;99.90;;;;;;5010476;28;20136;-68
2023/09/20 06:17:42;;;;;;;5.93;1.98;;;16.50;99.90;;;;;;4993543;28;20045;-69
2023/09/20 06:20:12;;;;;;;4.47;1.40;;;16.40;99.90;;;;;;5006289;28;20046;-70
2023/09/20 06:22:42;;;;;;;3.28;1.75;;;16.40;99.90;;;;;;5008281;28;20609;-67
2023/09/20 06:25:08;;;;;;;7.55;1.48;;;16.40;99.90;;;;;;5027620;28;20052;-67
2023/09/20 06:27:34;;;;;;;7.07;1.38;;;16.40;99.90;;;;;;5010344;28;20413;-67
2023/09/20 06:30:07;;;;;;;3.10;1.38;;;16.30;99.90;;;;;;5006936;28;20871;-69
2023/09/20 06:32:35;;;;;;;5.03;1.65;;;16.30;99.90;;;;;;5010246;28;20054;-69
2023/09/20 06:35:03;;;;;;;5.93;1.60;;;16.30;99.90;;;;;;5024839;28;20128;-69
2023/09/20 06:37:29;;;;;;;7.25;1.55;;;16.30;99.90;;;;;;5010506;28;20054;-69
2023/09/20 06:39:56;;;;;;;6.68;1.50;;;16.30;99.90;;;;;;5006285;28;20111;-69
2023/09/20 06:42:29;;;;;;;5.05;1.88;;;16.40;99.90;;;;;;4980706;28;20480;-70
2023/09/20 06:44:56;;;;;;;4.50;1.10;;;16.40;99.90;;;;;;5006085;28;20057;-68
2023/09/20 06:47:24;;;;;;;1.60;1.38;;;16.40;99.90;;;;;;5025700;28;20045;-68
2023/09/20 06:49:50;;;;;;;4.15;1.42;;;16.40;99.90;;;;;;5027713;28;20064;-69
2023/09/20 06:52:17;;;;;;;3.55;1.42;;;16.40;99.90;;;;;;5026476;28;20042;-68
2023/09/20 06:54:45;;;;;;;5.57;1.70;;;16.40;99.90;;;;;;5020004;28;20049;-68
2023/09/20 06:57:17;;;;;;;8.35;2.03;;;16.40;99.90;;;;;;4998118;28;20041;-68
2023/09/20 06:59:45;;;;;;;3.15;1.30;;;16.40;99.90;;;;;;5025368;28;20053;-69
2023/09/20 07:02:12;;;;;;;3.42;1.45;;;16.40;99.90;;;;;;5005138;28;20061;-69
2023/09/20 07:04:39;;;;;;;2.42;1.42;;;16.40;99.90;;;;;;5009846;28;20050;-68
2023/09/20 07:07:07;;;;;;;3.05;1.30;;;16.40;99.90;;;;;;5016737;28;20132;-68
2023/09/20 07:09:34;;;;;;;5.90;1.73;;;16.40;99.90;;;;;;5014319;28;20081;-68
2023/09/20 07:12:03;;;;;;;3.70;1.55;;;16.50;99.90;;;;;;5006506;28;20495;-69
2023/09/20 07:14:31;;;;;;;5.07;1.20;;;16.50;99.90;;;;;;4991852;28;20052;-69
2023/09/20 07:16:58;;;;;;;6.28;1.38;;;16.60;99.90;;;;;;4998180;28;20052;-68
2023/09/20 07:19:28;;;;;;;5.70;1.67;;;16.60;99.90;;;;;;5003941;28;20046;-68
2023/09/20 07:21:55;;;;;;;7.53;1.88;;;16.70;99.90;;;;;;5012438;28;20045;-68
2023/09/20 07:24:24;;;;;;;3.90;1.58;;;16.70;99.90;;;;;;4994052;28;20049;-69
2023/09/20 07:26:58;;;;;;;2.45;1.30;;;16.70;99.90;;;;;;5017607;28;20095;-69
2023/09/20 07:29:24;;;;;;;3.95;1.25;;;16.80;99.90;;;;;;4997758;28;20107;-67
2023/09/20 07:31:50;;;;;;;4.05;1.42;;;16.80;99.90;;;;;;5017282;28;20049;-68
2023/09/20 07:34:19;;;;;;;4.63;1.67;;;17.00;99.90;;;;;;5015618;28;20160;-69
2023/09/20 07:36:49;;;;;;;5.75;1.77;;;17.20;99.90;;;;;;5024960;28;20054;-68
2023/09/20 07:39:21;;;;;;;4.20;1.48;;;17.50;99.90;;;;;;5024432;28;20053;-68
2023/09/20 07:41:53;;;;;;;5.18;1.65;;;17.70;99.90;;;;;;5005625;28;20045;-68
2023/09/20 07:44:23;;;;;;;5.93;1.48;;;17.80;99.90;;;;;;4984830;28;20048;-68
2023/09/20 07:46:53;;;;;;;3.65;1.73;;;17.90;99.90;;;;;;5016188;28;20050;-68
2023/09/20 07:49:21;;;;;;;3.65;1.40;;;18.10;99.90;;;;;;5019708;28;20403;-68
2023/09/20 07:51:50;;;;;;;3.58;1.33;;;18.20;99.90;;;;;;5014771;28;20053;-69
2023/09/20 07:54:17;;;;;;;5.78;1.63;;;18.30;99.90;;;;;;5005456;28;20050;-68
2023/09/20 07:56:43;;;;;;;6.00;1.92;;;18.40;99.90;;;;;;5001960;28;20052;-68
2023/09/20 07:59:13;;;;;;;2.38;1.23;;;18.50;99.90;;;;;;5022990;28;20497;-68
2023/09/20 08:01:43;;;;;;;;;;;18.60;99.90;;;;;;4978697;28;20041;-68
2023/09/20 08:04:10;;;;;;;8.60;1.65;;;18.60;99.90;;;;;;5002349;28;20004;-69
2023/09/20 08:06:37;;;;;;;6.35;1.98;;;18.70;99.90;;;;;;5013720;28;20068;-68
2023/09/20 08:09:04;;;;;;;4.40;1.63;;;18.70;99.90;;;;;;4984087;28;20054;-68
2023/09/20 08:11:31;;;;;;;6.10;2.60;;;18.80;99.90;;;;;;5008139;28;20430;-68
2023/09/20 08:14:02;;;;;;;3.50;1.58;;;18.80;99.90;;;;;;5006023;28;20196;-68
2023/09/20 08:16:33;;;;;;;6.63;1.60;;;18.90;99.90;;;;;;5003616;28;20742;-69
2023/09/20 08:21:38;;;;;;;7.85;1.90;;;19.10;99.90;;;;;;5003227;28;20061;-68
2023/09/20 09:00:24;;;;;;;3.90;1.45;;;19.30;99.90;;;;;;5027237;28;20046;-69
2023/09/20 09:02:53;;;;;;;4.75;1.70;;;19.30;99.90;;;;;;5023511;28;20046;-68
2023/09/20 09:05:21;;;;;;;4.57;1.63;;;19.20;99.90;;;;;;5025033;28;20480;-69
2023/09/20 09:07:48;;;;;;;7.50;1.55;;;19.20;99.90;;;;;;5009494;28;20038;-68
2023/09/20 09:10:14;;;;;;;4.60;2.10;;;19.20;99.90;;;;;;5009733;28;20057;-69
2023/09/20 09:12:43;;;;;;;4.60;2.00;;;19.10;99.90;;;;;;5007854;28;20038;-69
2023/09/20 09:15:10;;;;;;;5.70;1.73;;;19.10;99.90;;;;;;5008203;28;20049;-69
2023/09/20 09:17:40;;;;;;;2.03;1.20;;;19.10;99.90;;;;;;4993611;28;20052;-69
2023/09/20 09:20:19;;;;;;;3.28;1.33;;;19.00;99.90;;;;;;5022826;28;20053;-69
2023/09/20 09:22:45;;;;;;;3.47;1.53;;;19.00;99.90;;;;;;4992239;28;20118;-69
2023/09/20 09:25:14;;;;;;;8.07;1.40;;;19.00;99.90;;;;;;4991621;28;20446;-69
2023/09/20 09:27:41;;;;;;;2.93;1.37;;;19.10;99.90;;;;;;5023784;28;20042;-69
2023/09/20 09:30:15;;;;;;;4.18;1.45;;;19.10;99.90;;;;;;5024061;28;20057;-69
2023/09/20 09:32:43;;;;;;;1.77;1.23;;;19.20;99.90;;;;;;5014404;28;20137;-68
2023/09/20 09:35:09;;;;;;;3.95;1.60;;;19.20;99.90;;;;;;5024225;28;20124;-69
2023/09/20 09:37:37;;;;;;;9.75;1.70;;;19.10;99.90;;;;;;5009279;28;20132;-69
2023/09/20 09:40:05;;;;;;;3.60;1.27;;;19.10;99.90;;;;;;5020540;28;20077;-69
2023/09/20 09:42:32;;;;;;;4.13;1.40;;;19.10;99.90;;;;;;5010641;28;20064;-69
2023/09/20 09:44:58;;;;;;;3.95;1.23;;;19.00;99.90;;;;;;5025608;28;20417;-69
2023/09/20 09:47:25;;;;;;;5.25;1.20;;;19.00;99.90;;;;;;5006435;28;20140;-69
2023/09/20 09:49:53;;;;;;;5.78;1.33;;;19.00;99.90;;;;;;5005411;28;20085;-69
2023/09/20 09:52:26;;;;;;;5.28;1.35;;;19.00;99.90;;;;;;5013828;28;20052;-69
2023/09/20 09:54:55;;;;;;;2.33;1.13;;;19.00;99.90;;;;;;5008153;28;20076;-70
2023/09/20 09:57:22;;;;;;;3.58;1.25;;;19.10;99.90;;;;;;4999020;28;20038;-69
2023/09/20 09:59:48;;;;;;;2.25;1.00;;;19.10;99.90;;;;;;5023063;28;20049;-69
2023/09/20 10:02:22;;;;;;;5.30;1.45;;;19.10;99.90;;;;;;5021104;28;20164;-68
2023/09/20 10:04:59;;;;;;;5.30;1.20;;;19.10;99.90;;;;;;5009983;28;20068;-70
2023/09/20 10:07:31;;;;;;;2.65;1.27;;;19.10;99.90;;;;;;5007048;28;20057;-68
2023/09/20 10:10:12;;;;;;;2.80;1.95;;;19.10;99.90;;;;;;4989330;28;20129;-69
2023/09/20 10:12:40;;;;;;;2.53;1.30;;;19.10;99.90;;;;;;5008124;28;20469;-68
2023/09/20 10:15:07;;;;;;;3.97;1.38;;;19.10;99.90;;;;;;5007718;28;20119;-69
2023/09/20 10:17:34;;;;;;;1.92;1.10;;;19.10;99.90;;;;;;5024299;28;20248;-68
2023/09/20 10:20:07;;;;;;;3.47;1.40;;;19.20;99.90;;;;;;5023957;28;20041;-69
2023/09/20 10:22:41;;;;;;;2.97;1.38;;;19.30;99.90;;;;;;5008410;28;20057;-69
2023/09/20 10:25:27;;;;;;;4.00;1.33;;;19.30;99.90;;;;;;5026790;28;20060;-68
2023/09/20 10:27:54;;;;;;;2.67;1.02;;;19.40;99.90;;;;;;4990659;28;20092;-67
2023/09/20 10:30:21;;;;;;;2.90;1.30;;;19.40;99.90;;;;;;5027399;28;20065;-68
2023/09/20 10:32:47;;;;;;;4.72;1.20;;;19.40;99.90;;;;;;5003200;28;20085;-68
2023/09/20 10:35:33;;;;;;;3.95;1.23;;;19.40;99.90;;;;;;5009502;28;20491;-69
2023/09/20 10:38:12;;;;;;;2.55;0.90;;;19.40;99.90;;;;;;5025740;28;20091;-69
2023/09/20 10:40:48;;;;;;;6.95;1.42;;;19.40;99.90;;;;;;5007964;28;20037;-70
2023/09/20 10:43:16;;;;;;;3.38;1.02;;;19.40;99.90;;;;;;5016043;28;20454;-69
2023/09/20 10:45:53;;;;;;;3.20;1.10;;;19.50;99.90;;;;;;5025659;28;20045;-68
2023/09/20 10:48:23;;;;;;;4.95;1.30;;;19.50;99.90;;;;;;5026039;28;20053;-69
2023/09/20 10:50:54;;;;;;;3.85;1.30;;;19.50;99.90;;;;;;5026197;28;20495;-69
2023/09/20 10:53:22;;;;;;;4.72;1.05;;;19.60;99.90;;;;;;5024672;28;20091;-68
2023/09/20 10:55:51;;;;;;;2.90;1.10;;;19.70;99.90;;;;;;5026164;28;20076;-68
2023/09/20 10:58:23;;;;;;;2.55;1.10;;;19.70;99.90;;;;;;5023237;28;20064;-68
2023/09/20 11:00:51;;;;;;;2.63;1.15;;;19.70;99.90;;;;;;5008960;28;20495;-68
2023/09/20 11:03:18;;;;;;;2.13;0.90;;;19.60;99.90;;;;;;5004450;28;20053;-68
2023/09/20 11:05:44;;;;;;;0.73;0.73;;;19.70;99.90;;;;;;4996017;28;20060;-69
2023/09/20 11:08:13;;;;;;;3.88;1.40;;;19.60;99.90;;;;;;5024300;28;20111;-67
2023/09/20 11:10:46;;;;;;;5.35;1.10;;;19.60;99.90;;;;;;5024915;28;20048;-69
2023/09/20 11:13:14;;;;;;;1.48;1.10;;;19.70;99.90;;;;;;4992174;28;20049;-69
2023/09/20 11:15:43;;;;;;;1.45;1.00;;;19.60;99.90;;;;;;4985727;28;20041;-69
2023/09/20 11:18:10;;;;;;;3.13;0.93;;;19.60;99.90;;;;;;5009513;28;20045;-68
2023/09/20 11:20:37;;;;;;;2.38;1.05;;;19.70;99.90;;;;;;5012686;28;20048;-66
2023/09/20 11:23:03;;;;;;;1.98;0.98;;;19.60;99.90;;;;;;5021100;28;20113;-65
2023/09/20 11:25:30;;;;;;;2.83;0.98;;;19.60;99.90;;;;;;5010764;28;20096;-64
2023/09/20 11:27:58;;;;;;;1.75;0.85;;;19.60;99.90;;;;;;5006174;28;20119;-66
2023/09/20 11:30:27;;;;;;;4.32;1.00;;;19.60;99.90;;;;;;5007793;28;20042;-65
2023/09/20 11:32:54;;;;;;;0.98;0.98;;;19.60;99.90;;;;;;5005402;28;20079;-65
2023/09/20 11:35:38;;;;;;;2.22;1.00;;;19.60;99.90;;;;;;5005870;28;20458;-65
2023/09/20 11:38:06;;;;;;;2.38;1.30;;;19.60;99.90;;;;;;5008749;28;20403;-65
2023/09/20 11:40:37;;;;;;;2.20;0.98;;;19.50;99.90;;;;;;5009705;28;20053;-65
2023/09/20 11:43:03;;;;;;;4.28;1.10;;;19.50;99.90;;;;;;5001211;28;20068;-65
2023/09/20 11:45:30;;;;;;;3.53;1.00;;;19.60;99.90;;;;;;5018838;28;20096;-65
2023/09/20 11:47:56;;;;;;;2.25;1.00;;;19.60;99.90;;;;;;5026341;28;20054;-64
2023/09/20 11:50:29;;;;;;;3.05;1.02;;;19.50;99.90;;;;;;4999487;28;20042;-64
2023/09/20 11:52:55;;;;;;;1.77;1.05;;;19.60;99.90;;;;;;5020857;28;20073;-65
2023/09/20 11:55:21;;;;;;;6.55;1.00;;;19.60;99.90;;;;;;5015651;28;20057;-64
2023/09/20 11:57:48;;;;;;;2.00;0.93;;;19.60;99.90;;;;;;4995231;28;20048;-64
2023/09/20 12:00:19;;;;;;;1.45;0.80;;;19.60;99.90;;;;;;5016712;28;20100;-64
2023/09/20 12:02:46;;;;;;;1.15;1.02;;;19.60;99.90;;;;;;5015218;28;20053;-64
2023/09/20 12:05:11;;;;;;;4.28;0.98;;;19.60;99.90;;;;;;5019327;28;20046;-65
2023/09/20 12:07:37;;;;;;;1.38;0.90;;;19.60;99.90;;;;;;4993475;28;20092;-65
2023/09/20 12:10:06;;;;;;;1.13;0.93;;;19.60;99.90;;;;;;5027416;28;20117;-65
2023/09/20 12:12:33;;;;;;;2.17;0.75;;;19.60;99.90;;;;;;5002689;28;20050;-64
2023/09/20 12:14:58;;;;;;;2.53;1.13;;;19.60;99.90;;;;;;5010753;28;20120;-65
2023/09/20 12:17:24;;;;;;;1.23;0.88;;;19.60;99.90;;;;;;5017824;28;20157;-64
2023/09/20 12:19:50;;;;;;;11.70;1.40;;;19.60;99.90;;;;;;5012181;28;20068;-64
2023/09/20 12:22:17;;;;;;;2.97;0.77;;;19.60;99.90;;;;;;5030120;28;20426;-64
2023/09/20 12:24:44;;;;;;;2.33;0.77;;;19.60;99.90;;;;;;5007753;28;20049;-64
2023/09/20 12:27:11;;;;;;;4.65;0.65;;;19.70;99.90;;;;;;5011357;28;20052;-65
2023/09/20 12:29:37;;;;;;;1.02;0.80;;;19.70;99.90;;;;;;5004523;28;20038;-65
2023/09/20 12:32:03;;;;;;;1.02;0.77;;;19.70;99.90;;;;;;5003902;28;20064;-65
2023/09/20 12:34:29;;;;;;;2.03;0.80;;;19.70;99.90;;;;;;5005648;28;20128;-64
2023/09/20 12:36:56;;;;;;;2.88;0.98;;;19.80;99.90;;;;;;5005937;28;20048;-64
2023/09/20 12:39:23;;;;;;;1.27;0.75;;;19.90;99.90;;;;;;4999480;28;20350;-64
2023/09/20 12:41:49;;;;;;;4.50;0.90;;;20.00;99.90;;;;;;5004038;28;20049;-65
2023/09/20 12:44:15;;;;;;;1.77;1.00;;;20.30;99.90;;;;;;5018221;28;20399;-65
2023/09/20 12:46:43;;;;;;;1.90;1.17;;;20.40;99.90;;;;;;5014614;28;20073;-65
2023/09/20 12:49:09;;;;;;;3.70;1.10;;;20.50;99.90;;;;;;5004874;28;20087;-65
2023/09/20 12:51:35;;;;;;;2.10;1.20;;;20.50;99.90;;;;;;5017793;28;20077;-65
2023/09/20 12:54:04;;;;;;;3.10;1.27;;;20.60;99.90;;;;;;5012709;28;20050;-65
2023/09/20 12:56:30;;;;;;;9.32;1.38;;;20.60;99.90;;;;;;4997224;28;20099;-64
2023/09/20 12:58:57;;;;;;;2.50;1.27;;;20.60;99.90;;;;;;5009127;28;20041;-64
2023/09/20 13:01:23;;;;;;;1.08;0.98;;;20.50;99.90;;;;;;4996947;28;20108;-65
2023/09/20 13:03:48;;;;;;;3.35;1.00;;;20.50;99.90;;;;;;4975019;28;20038;-64
2023/09/20 13:06:14;;;;;;;4.45;1.08;;;20.50;99.90;;;;;;4975207;28;20132;-65
2023/09/20 13:08:41;;;;;;;2.88;0.95;;;20.50;99.90;;;;;;4981875;28;20046;-64
2023/09/20 13:11:10;;;;;;;1.85;0.88;;;20.40;99.90;;;;;;5008103;28;20042;-64
2023/09/20 13:13:42;;;;;;;1.45;1.00;;;20.30;99.90;;;;;;4987752;28;20096;-64
2023/09/20 13:16:14;;;;;;;2.85;1.33;;;20.30;99.90;;;;;;4973529;28;20471;-64
2023/09/20 13:18:40;;;;;;;1.52;1.17;;;20.30;99.90;;;;;;5000590;28;20046;-65
2023/09/20 13:21:06;;;;;;;2.60;1.50;;;20.30;99.90;;;;;;4998053;28;20377;-64
2023/09/20 13:23:32;;;;;;;1.65;1.17;;;20.30;99.90;;;;;;4985456;28;20069;-65
2023/09/20 13:26:00;;;;;;;1.15;1.05;;;20.40;99.90;;;;;;4974264;28;20038;-64
2023/09/20 13:28:27;;;;;;;4.30;0.95;;;20.50;99.90;;;;;;5001751;28;20137;-64
2023/09/20 13:30:53;;;;;;;4.95;1.50;;;20.60;99.90;;;;;;4995845;28;20064;-64
2023/09/20 13:33:19;;;;;;;3.90;1.48;;;20.80;99.90;;;;;;5001726;28;20599;-65